Terminal Aerodrome Forecast
Issued by NWS

Home | Current Version | Previous Version | Graphics & Text | Print | Product List | Glossary On
Versions: 1 2 3 4 5 6 7 8 9 10 11
000
FTUS42 KMHX 221723
TAFPGV
TAF
KPGV 221723Z 2218/2318 24013G24KT P6SM SKC
     FM230000 25008KT P6SM SCT100
     FM230900 32008KT P6SM FEW050
      AMD LTD TO CLD VIS AND WIND=

USA.gov is the U.S. government's official web portal to all federal, state and local government web resources and services.